sensor_id;sensor_type;location;lat;lon;timestamp;P1;durP1;ratioP1;P2;durP2;ratioP2
28910;SDS011;16028;42.642;23.310;2022-09-09T00:00:48;11.50;;;9.75;;
28910;SDS011;16028;42.642;23.310;2022-09-09T00:03:22;13.80;;;10.02;;
28910;SDS011;16028;42.642;23.310;2022-09-09T00:05:54;10.68;;;9.15;;
28910;SDS011;16028;42.642;23.310;2022-09-09T00:08:41;11.73;;;9.45;;
28910;SDS011;16028;42.642;23.310;2022-09-09T00:11:21;10.70;;;9.45;;
28910;SDS011;16028;42.642;23.310;2022-09-09T00:13:52;12.80;;;9.70;;
28910;SDS011;16028;42.642;23.310;2022-09-09T00:16:24;15.00;;;10.13;;
28910;SDS011;16028;42.642;23.310;2022-09-09T00:18:56;10.07;;;9.07;;
28910;SDS011;16028;42.642;23.310;2022-09-09T00:21:30;11.20;;;9.77;;
28910;SDS011;16028;42.642;23.310;2022-09-09T00:24:04;13.43;;;9.70;;
28910;SDS011;16028;42.642;23.310;2022-09-09T00:26:39;11.13;;;9.07;;
28910;SDS011;16028;42.642;23.310;2022-09-09T00:29:14;11.43;;;9.65;;
28910;SDS011;16028;42.642;23.310;2022-09-09T00:31:50;11.73;;;9.50;;
28910;SDS011;16028;42.642;23.310;2022-09-09T00:34:24;12.10;;;9.60;;
28910;SDS011;16028;42.642;23.310;2022-09-09T00:36:54;10.70;;;9.40;;
28910;SDS011;16028;42.642;23.310;2022-09-09T00:39:25;11.65;;;9.25;;
28910;SDS011;16028;42.642;23.310;2022-09-09T00:42:01;10.60;;;9.20;;
28910;SDS011;16028;42.642;23.310;2022-09-09T00:44:39;10.70;;;9.57;;
28910;SDS011;16028;42.642;23.310;2022-09-09T00:47:23;11.07;;;9.32;;
28910;SDS011;16028;42.642;23.310;2022-09-09T00:50:14;12.02;;;9.75;;
28910;SDS011;16028;42.642;23.310;2022-09-09T00:52:51;17.00;;;10.55;;
28910;SDS011;16028;42.642;23.310;2022-09-09T00:55:28;11.25;;;9.18;;
28910;SDS011;16028;42.642;23.310;2022-09-09T00:58:00;13.85;;;9.57;;
28910;SDS011;16028;42.642;23.310;2022-09-09T01:00:28;10.63;;;8.98;;
28910;SDS011;16028;42.642;23.310;2022-09-09T01:03:07;10.98;;;9.18;;
28910;SDS011;16028;42.642;23.310;2022-09-09T01:05:46;10.68;;;9.48;;
28910;SDS011;16028;42.642;23.310;2022-09-09T01:08:24;11.10;;;9.30;;
28910;SDS011;16028;42.642;23.310;2022-09-09T01:11:12;12.00;;;10.15;;
28910;SDS011;16028;42.642;23.310;2022-09-09T01:13:46;10.13;;;9.05;;
28910;SDS011;16028;42.642;23.310;2022-09-09T01:16:19;12.02;;;9.48;;
28910;SDS011;16028;42.642;23.310;2022-09-09T01:18:48;11.80;;;9.48;;
28910;SDS011;16028;42.642;23.310;2022-09-09T01:21:20;11.45;;;9.75;;
28910;SDS011;16028;42.642;23.310;2022-09-09T01:24:04;10.82;;;9.48;;
28910;SDS011;16028;42.642;23.310;2022-09-09T01:26:46;12.32;;;9.70;;
28910;SDS011;16028;42.642;23.310;2022-09-09T01:29:16;10.88;;;9.75;;
28910;SDS011;16028;42.642;23.310;2022-09-09T01:31:51;11.23;;;10.00;;
28910;SDS011;16028;42.642;23.310;2022-09-09T01:34:20;11.90;;;10.32;;
28910;SDS011;16028;42.642;23.310;2022-09-09T01:36:49;11.93;;;10.43;;
28910;SDS011;16028;42.642;23.310;2022-09-09T01:39:23;12.85;;;10.13;;
28910;SDS011;16028;42.642;23.310;2022-09-09T01:41:52;10.52;;;9.45;;
28910;SDS011;16028;42.642;23.310;2022-09-09T01:44:20;11.77;;;9.95;;
28910;SDS011;16028;42.642;23.310;2022-09-09T01:46:47;13.88;;;10.25;;
28910;SDS011;16028;42.642;23.310;2022-09-09T01:49:14;14.13;;;9.85;;
28910;SDS011;16028;42.642;23.310;2022-09-09T01:51:43;13.90;;;10.20;;
28910;SDS011;16028;42.642;23.310;2022-09-09T01:54:12;11.05;;;9.68;;
28910;SDS011;16028;42.642;23.310;2022-09-09T01:56:40;12.05;;;10.10;;
28910;SDS011;16028;42.642;23.310;2022-09-09T01:59:22;11.73;;;10.48;;
28910;SDS011;16028;42.642;23.310;2022-09-09T02:02:00;12.75;;;10.32;;
28910;SDS011;16028;42.642;23.310;2022-09-09T02:04:39;12.45;;;9.93;;
28910;SDS011;16028;42.642;23.310;2022-09-09T02:07:12;13.85;;;10.90;;
28910;SDS011;16028;42.642;23.310;2022-09-09T02:09:47;12.85;;;10.27;;
28910;SDS011;16028;42.642;23.310;2022-09-09T02:12:18;11.00;;;9.60;;
28910;SDS011;16028;42.642;23.310;2022-09-09T02:14:52;14.93;;;10.88;;
28910;SDS011;16028;42.642;23.310;2022-09-09T02:17:25;12.30;;;10.25;;
28910;SDS011;16028;42.642;23.310;2022-09-09T02:19:58;12.63;;;11.10;;
28910;SDS011;16028;42.642;23.310;2022-09-09T02:22:32;12.80;;;10.80;;
28910;SDS011;16028;42.642;23.310;2022-09-09T02:25:01;12.77;;;10.82;;
28910;SDS011;16028;42.642;23.310;2022-09-09T02:27:30;14.60;;;10.68;;
28910;SDS011;16028;42.642;23.310;2022-09-09T02:29:59;13.50;;;10.40;;
28910;SDS011;16028;42.642;23.310;2022-09-09T02:32:28;12.65;;;10.77;;
28910;SDS011;16028;42.642;23.310;2022-09-09T02:35:00;13.02;;;11.23;;
28910;SDS011;16028;42.642;23.310;2022-09-09T02:37:31;13.45;;;11.80;;
28910;SDS011;16028;42.642;23.310;2022-09-09T02:40:03;16.25;;;10.65;;
28910;SDS011;16028;42.642;23.310;2022-09-09T02:42:31;15.63;;;11.00;;
28910;SDS011;16028;42.642;23.310;2022-09-09T02:44:59;12.48;;;10.68;;
28910;SDS011;16028;42.642;23.310;2022-09-09T02:47:29;13.82;;;10.70;;
28910;SDS011;16028;42.642;23.310;2022-09-09T02:50:06;18.10;;;10.70;;
28910;SDS011;16028;42.642;23.310;2022-09-09T02:52:41;14.80;;;11.52;;
28910;SDS011;16028;42.642;23.310;2022-09-09T02:55:17;17.67;;;11.30;;
28910;SDS011;16028;42.642;23.310;2022-09-09T02:57:49;15.10;;;11.50;;
28910;SDS011;16028;42.642;23.310;2022-09-09T03:00:23;14.00;;;11.13;;
28910;SDS011;16028;42.642;23.310;2022-09-09T03:02:51;12.75;;;11.38;;
28910;SDS011;16028;42.642;23.310;2022-09-09T03:05:18;15.75;;;11.82;;
28910;SDS011;16028;42.642;23.310;2022-09-09T03:07:45;12.90;;;11.40;;
28910;SDS011;16028;42.642;23.310;2022-09-09T03:10:12;13.93;;;12.38;;
28910;SDS011;16028;42.642;23.310;2022-09-09T03:12:39;15.85;;;11.52;;
28910;SDS011;16028;42.642;23.310;2022-09-09T03:15:07;14.77;;;11.68;;
28910;SDS011;16028;42.642;23.310;2022-09-09T03:17:36;15.05;;;12.18;;
28910;SDS011;16028;42.642;23.310;2022-09-09T03:20:03;18.35;;;11.63;;
28910;SDS011;16028;42.642;23.310;2022-09-09T03:22:30;16.05;;;12.18;;
28910;SDS011;16028;42.642;23.310;2022-09-09T03:24:57;15.43;;;11.50;;
28910;SDS011;16028;42.642;23.310;2022-09-09T03:27:24;12.38;;;11.05;;
28910;SDS011;16028;42.642;23.310;2022-09-09T03:29:51;15.15;;;12.07;;
28910;SDS011;16028;42.642;23.310;2022-09-09T03:32:18;14.65;;;11.75;;
28910;SDS011;16028;42.642;23.310;2022-09-09T03:34:48;14.30;;;12.00;;
28910;SDS011;16028;42.642;23.310;2022-09-09T03:37:15;13.95;;;11.70;;
28910;SDS011;16028;42.642;23.310;2022-09-09T03:39:43;13.57;;;11.02;;
28910;SDS011;16028;42.642;23.310;2022-09-09T03:42:11;14.13;;;11.52;;
28910;SDS011;16028;42.642;23.310;2022-09-09T03:44:43;19.87;;;11.73;;
28910;SDS011;16028;42.642;23.310;2022-09-09T03:47:15;17.02;;;12.50;;
28910;SDS011;16028;42.642;23.310;2022-09-09T03:49:43;14.45;;;12.75;;
28910;SDS011;16028;42.642;23.310;2022-09-09T03:52:12;18.52;;;12.13;;
28910;SDS011;16028;42.642;23.310;2022-09-09T03:54:39;13.23;;;11.82;;
28910;SDS011;16028;42.642;23.310;2022-09-09T03:57:07;17.17;;;11.75;;
28910;SDS011;16028;42.642;23.310;2022-09-09T03:59:34;14.35;;;11.35;;
28910;SDS011;16028;42.642;23.310;2022-09-09T04:02:01;13.27;;;11.65;;
28910;SDS011;16028;42.642;23.310;2022-09-09T04:04:29;14.52;;;11.15;;
28910;SDS011;16028;42.642;23.310;2022-09-09T04:06:56;15.68;;;11.45;;
28910;SDS011;16028;42.642;23.310;2022-09-09T04:09:24;13.35;;;10.55;;
28910;SDS011;16028;42.642;23.310;2022-09-09T04:11:51;12.77;;;11.48;;
28910;SDS011;16028;42.642;23.310;2022-09-09T04:14:18;13.82;;;12.02;;
28910;SDS011;16028;42.642;23.310;2022-09-09T04:16:44;12.63;;;11.32;;
28910;SDS011;16028;42.642;23.310;2022-09-09T04:19:12;16.88;;;11.88;;
28910;SDS011;16028;42.642;23.310;2022-09-09T04:21:39;13.43;;;11.32;;
28910;SDS011;16028;42.642;23.310;2022-09-09T04:24:07;16.02;;;11.77;;
28910;SDS011;16028;42.642;23.310;2022-09-09T04:26:35;15.45;;;12.48;;
28910;SDS011;16028;42.642;23.310;2022-09-09T04:29:03;15.40;;;12.02;;
28910;SDS011;16028;42.642;23.310;2022-09-09T04:31:30;16.42;;;12.40;;
28910;SDS011;16028;42.642;23.310;2022-09-09T04:33:57;13.93;;;11.40;;
28910;SDS011;16028;42.642;23.310;2022-09-09T04:36:27;14.82;;;11.38;;
28910;SDS011;16028;42.642;23.310;2022-09-09T04:38:54;17.15;;;12.90;;
28910;SDS011;16028;42.642;23.310;2022-09-09T04:41:21;19.02;;;12.05;;
28910;SDS011;16028;42.642;23.310;2022-09-09T04:43:50;17.63;;;12.93;;
28910;SDS011;16028;42.642;23.310;2022-09-09T04:46:18;14.95;;;13.13;;
28910;SDS011;16028;42.642;23.310;2022-09-09T04:48:45;18.20;;;13.25;;
28910;SDS011;16028;42.642;23.310;2022-09-09T04:51:12;16.55;;;12.20;;
28910;SDS011;16028;42.642;23.310;2022-09-09T04:53:40;17.35;;;12.77;;
28910;SDS011;16028;42.642;23.310;2022-09-09T04:56:07;15.13;;;13.38;;
28910;SDS011;16028;42.642;23.310;2022-09-09T04:58:36;19.83;;;13.85;;
28910;SDS011;16028;42.642;23.310;2022-09-09T05:01:05;17.60;;;14.05;;
28910;SDS011;16028;42.642;23.310;2022-09-09T05:03:33;20.77;;;14.00;;
28910;SDS011;16028;42.642;23.310;2022-09-09T05:06:03;25.70;;;15.15;;
28910;SDS011;16028;42.642;23.310;2022-09-09T05:08:31;18.40;;;14.98;;
28910;SDS011;16028;42.642;23.310;2022-09-09T05:10:58;20.98;;;13.98;;
28910;SDS011;16028;42.642;23.310;2022-09-09T05:13:25;19.52;;;14.13;;
28910;SDS011;16028;42.642;23.310;2022-09-09T05:15:53;19.65;;;14.75;;
28910;SDS011;16028;42.642;23.310;2022-09-09T05:18:21;17.20;;;13.90;;
28910;SDS011;16028;42.642;23.310;2022-09-09T05:20:48;18.08;;;14.70;;
28910;SDS011;16028;42.642;23.310;2022-09-09T05:23:16;17.77;;;14.05;;
28910;SDS011;16028;42.642;23.310;2022-09-09T05:25:43;20.85;;;12.95;;
28910;SDS011;16028;42.642;23.310;2022-09-09T05:28:11;19.20;;;14.18;;
28910;SDS011;16028;42.642;23.310;2022-09-09T05:30:38;17.95;;;14.05;;
28910;SDS011;16028;42.642;23.310;2022-09-09T05:33:05;20.40;;;15.27;;
28910;SDS011;16028;42.642;23.310;2022-09-09T05:35:35;20.15;;;14.70;;
28910;SDS011;16028;42.642;23.310;2022-09-09T05:38:05;28.48;;;15.38;;
28910;SDS011;16028;42.642;23.310;2022-09-09T05:40:32;20.25;;;14.02;;
28910;SDS011;16028;42.642;23.310;2022-09-09T05:42:59;26.83;;;16.23;;
28910;SDS011;16028;42.642;23.310;2022-09-09T05:45:30;21.13;;;14.77;;
28910;SDS011;16028;42.642;23.310;2022-09-09T05:47:59;21.83;;;14.60;;
28910;SDS011;16028;42.642;23.310;2022-09-09T05:50:29;18.60;;;14.40;;
28910;SDS011;16028;42.642;23.310;2022-09-09T05:52:58;17.05;;;14.73;;
28910;SDS011;16028;42.642;23.310;2022-09-09T05:55:25;20.60;;;15.15;;
28910;SDS011;16028;42.642;23.310;2022-09-09T05:57:52;21.10;;;14.70;;
28910;SDS011;16028;42.642;23.310;2022-09-09T06:00:19;21.60;;;14.50;;
28910;SDS011;16028;42.642;23.310;2022-09-09T06:02:50;19.67;;;14.07;;
28910;SDS011;16028;42.642;23.310;2022-09-09T06:05:18;26.25;;;14.65;;
28910;SDS011;16028;42.642;23.310;2022-09-09T06:07:45;31.00;;;14.15;;
28910;SDS011;16028;42.642;23.310;2022-09-09T06:10:15;19.58;;;13.43;;
28910;SDS011;16028;42.642;23.310;2022-09-09T06:12:48;19.27;;;14.25;;
28910;SDS011;16028;42.642;23.310;2022-09-09T06:15:39;23.35;;;13.82;;
28910;SDS011;16028;42.642;23.310;2022-09-09T06:18:16;24.20;;;13.77;;
28910;SDS011;16028;42.642;23.310;2022-09-09T06:20:55;19.65;;;13.27;;
28910;SDS011;16028;42.642;23.310;2022-09-09T06:23:27;21.33;;;13.00;;
28910;SDS011;16028;42.642;23.310;2022-09-09T06:26:04;20.60;;;12.40;;
28910;SDS011;16028;42.642;23.310;2022-09-09T06:28:35;19.27;;;12.75;;
28910;SDS011;16028;42.642;23.310;2022-09-09T06:31:08;18.73;;;12.93;;
28910;SDS011;16028;42.642;23.310;2022-09-09T06:36:11;25.90;;;12.90;;
28910;SDS011;16028;42.642;23.310;2022-09-09T06:38:45;17.73;;;13.20;;
28910;SDS011;16028;42.642;23.310;2022-09-09T06:41:14;18.77;;;12.52;;
28910;SDS011;16028;42.642;23.310;2022-09-09T06:43:54;21.30;;;12.55;;
28910;SDS011;16028;42.642;23.310;2022-09-09T06:46:24;18.17;;;11.85;;
28910;SDS011;16028;42.642;23.310;2022-09-09T06:48:57;16.92;;;12.07;;
28910;SDS011;16028;42.642;23.310;2022-09-09T06:51:34;20.85;;;13.00;;
28910;SDS011;16028;42.642;23.310;2022-09-09T06:54:11;15.98;;;11.02;;
28910;SDS011;16028;42.642;23.310;2022-09-09T06:56:54;21.35;;;13.02;;
28910;SDS011;16028;42.642;23.310;2022-09-09T06:59:34;18.02;;;11.93;;
28910;SDS011;16028;42.642;23.310;2022-09-09T07:02:09;18.70;;;12.90;;
28910;SDS011;16028;42.642;23.310;2022-09-09T07:04:54;21.75;;;12.45;;
28910;SDS011;16028;42.642;23.310;2022-09-09T07:07:30;19.35;;;11.80;;
28910;SDS011;16028;42.642;23.310;2022-09-09T07:10:18;15.23;;;11.07;;
28910;SDS011;16028;42.642;23.310;2022-09-09T07:12:56;24.00;;;12.95;;
28910;SDS011;16028;42.642;23.310;2022-09-09T07:15:25;21.55;;;11.38;;
28910;SDS011;16028;42.642;23.310;2022-09-09T07:17:52;18.25;;;12.18;;
28910;SDS011;16028;42.642;23.310;2022-09-09T07:20:22;18.52;;;11.15;;
28910;SDS011;16028;42.642;23.310;2022-09-09T07:22:56;16.52;;;11.52;;
28910;SDS011;16028;42.642;23.310;2022-09-09T07:25:32;18.50;;;11.00;;
28910;SDS011;16028;42.642;23.310;2022-09-09T07:28:06;14.70;;;9.65;;
28910;SDS011;16028;42.642;23.310;2022-09-09T07:30:40;12.20;;;10.05;;
28910;SDS011;16028;42.642;23.310;2022-09-09T07:33:19;15.40;;;10.32;;
28910;SDS011;16028;42.642;23.310;2022-09-09T07:36:02;10.98;;;9.63;;
28910;SDS011;16028;42.642;23.310;2022-09-09T07:38:49;18.48;;;10.07;;
28910;SDS011;16028;42.642;23.310;2022-09-09T07:41:25;17.90;;;11.65;;
28910;SDS011;16028;42.642;23.310;2022-09-09T07:44:05;14.27;;;9.63;;
28910;SDS011;16028;42.642;23.310;2022-09-09T07:46:39;14.00;;;10.02;;
28910;SDS011;16028;42.642;23.310;2022-09-09T07:49:13;13.00;;;9.23;;
28910;SDS011;16028;42.642;23.310;2022-09-09T07:51:41;13.27;;;9.63;;
28910;SDS011;16028;42.642;23.310;2022-09-09T07:54:10;22.88;;;9.73;;
28910;SDS011;16028;42.642;23.310;2022-09-09T07:56:40;12.50;;;9.23;;
28910;SDS011;16028;42.642;23.310;2022-09-09T07:59:09;17.40;;;10.38;;
28910;SDS011;16028;42.642;23.310;2022-09-09T08:01:49;11.52;;;9.20;;
28910;SDS011;16028;42.642;23.310;2022-09-09T08:04:20;13.43;;;9.68;;
28910;SDS011;16028;42.642;23.310;2022-09-09T08:06:55;14.45;;;9.93;;
28910;SDS011;16028;42.642;23.310;2022-09-09T08:09:26;14.48;;;9.55;;
28910;SDS011;16028;42.642;23.310;2022-09-09T08:11:54;13.40;;;9.52;;
28910;SDS011;16028;42.642;23.310;2022-09-09T08:14:23;12.43;;;8.95;;
28910;SDS011;16028;42.642;23.310;2022-09-09T08:16:50;14.25;;;10.25;;
28910;SDS011;16028;42.642;23.310;2022-09-09T08:19:18;12.18;;;8.52;;
28910;SDS011;16028;42.642;23.310;2022-09-09T08:21:45;12.40;;;9.93;;
28910;SDS011;16028;42.642;23.310;2022-09-09T08:24:14;14.88;;;12.48;;
28910;SDS011;16028;42.642;23.310;2022-09-09T08:26:41;16.33;;;10.43;;
28910;SDS011;16028;42.642;23.310;2022-09-09T08:29:10;13.68;;;9.07;;
28910;SDS011;16028;42.642;23.310;2022-09-09T08:31:40;12.70;;;9.65;;
28910;SDS011;16028;42.642;23.310;2022-09-09T08:34:08;11.35;;;8.70;;
28910;SDS011;16028;42.642;23.310;2022-09-09T08:36:36;17.33;;;9.63;;
28910;SDS011;16028;42.642;23.310;2022-09-09T08:39:05;14.10;;;8.25;;
28910;SDS011;16028;42.642;23.310;2022-09-09T08:41:43;12.60;;;9.73;;
28910;SDS011;16028;42.642;23.310;2022-09-09T08:44:22;16.58;;;8.95;;
28910;SDS011;16028;42.642;23.310;2022-09-09T08:47:01;11.38;;;8.07;;
28910;SDS011;16028;42.642;23.310;2022-09-09T08:49:40;15.88;;;9.35;;
28910;SDS011;16028;42.642;23.310;2022-09-09T08:52:27;12.95;;;9.23;;
28910;SDS011;16028;42.642;23.310;2022-09-09T08:54:56;11.98;;;8.93;;
28910;SDS011;16028;42.642;23.310;2022-09-09T08:57:30;11.98;;;8.43;;
28910;SDS011;16028;42.642;23.310;2022-09-09T08:59:58;12.02;;;8.55;;
28910;SDS011;16028;42.642;23.310;2022-09-09T09:02:27;11.77;;;8.40;;
28910;SDS011;16028;42.642;23.310;2022-09-09T09:05:09;10.38;;;7.90;;
28910;SDS011;16028;42.642;23.310;2022-09-09T09:07:51;16.55;;;8.85;;
28910;SDS011;16028;42.642;23.310;2022-09-09T09:10:32;14.73;;;8.50;;
28910;SDS011;16028;42.642;23.310;2022-09-09T09:13:07;14.70;;;7.90;;
28910;SDS011;16028;42.642;23.310;2022-09-09T09:15:41;11.63;;;8.20;;
28910;SDS011;16028;42.642;23.310;2022-09-09T09:18:10;11.60;;;7.57;;
28910;SDS011;16028;42.642;23.310;2022-09-09T09:20:42;15.75;;;7.82;;
28910;SDS011;16028;42.642;23.310;2022-09-09T09:23:19;10.15;;;7.30;;
28910;SDS011;16028;42.642;23.310;2022-09-09T09:25:49;11.85;;;7.70;;
28910;SDS011;16028;42.642;23.310;2022-09-09T09:28:19;13.13;;;7.45;;
28910;SDS011;16028;42.642;23.310;2022-09-09T09:30:52;10.27;;;7.70;;
28910;SDS011;16028;42.642;23.310;2022-09-09T09:33:25;16.58;;;7.88;;
28910;SDS011;16028;42.642;23.310;2022-09-09T09:35:57;10.68;;;7.40;;
28910;SDS011;16028;42.642;23.310;2022-09-09T09:38:25;13.15;;;7.43;;
28910;SDS011;16028;42.642;23.310;2022-09-09T09:40:53;13.15;;;7.32;;
28910;SDS011;16028;42.642;23.310;2022-09-09T09:43:24;9.52;;;7.25;;
28910;SDS011;16028;42.642;23.310;2022-09-09T09:45:53;10.68;;;6.57;;
28910;SDS011;16028;42.642;23.310;2022-09-09T09:48:20;9.45;;;6.88;;
28910;SDS011;16028;42.642;23.310;2022-09-09T09:50:49;11.45;;;6.68;;
28910;SDS011;16028;42.642;23.310;2022-09-09T09:53:23;12.63;;;7.47;;
28910;SDS011;16028;42.642;23.310;2022-09-09T09:55:53;11.20;;;8.73;;
28910;SDS011;16028;42.642;23.310;2022-09-09T09:58:22;15.30;;;7.40;;
28910;SDS011;16028;42.642;23.310;2022-09-09T10:00:51;8.25;;;6.78;;
28910;SDS011;16028;42.642;23.310;2022-09-09T10:03:20;15.43;;;9.57;;
28910;SDS011;16028;42.642;23.310;2022-09-09T10:05:51;14.77;;;7.50;;
28910;SDS011;16028;42.642;23.310;2022-09-09T10:08:18;20.15;;;7.75;;
28910;SDS011;16028;42.642;23.310;2022-09-09T10:10:48;9.75;;;6.97;;
28910;SDS011;16028;42.642;23.310;2022-09-09T10:13:44;12.05;;;7.07;;
28910;SDS011;16028;42.642;23.310;2022-09-09T10:16:30;12.90;;;7.13;;
28910;SDS011;16028;42.642;23.310;2022-09-09T10:19:08;17.45;;;7.40;;
28910;SDS011;16028;42.642;23.310;2022-09-09T10:28:03;9.32;;;7.00;;
28910;SDS011;16028;42.642;23.310;2022-09-09T10:30:52;12.55;;;7.82;;
28910;SDS011;16028;42.642;23.310;2022-09-09T10:36:07;11.60;;;7.25;;
28910;SDS011;16028;42.642;23.310;2022-09-09T10:38:41;9.98;;;7.22;;
28910;SDS011;16028;42.642;23.310;2022-09-09T10:41:18;12.50;;;7.28;;
28910;SDS011;16028;42.642;23.310;2022-09-09T10:43:56;10.82;;;7.38;;
28910;SDS011;16028;42.642;23.310;2022-09-09T10:46:42;15.48;;;8.07;;
28910;SDS011;16028;42.642;23.310;2022-09-09T10:49:21;10.55;;;7.13;;
28910;SDS011;16028;42.642;23.310;2022-09-09T10:52:01;10.07;;;7.00;;
28910;SDS011;16028;42.642;23.310;2022-09-09T10:54:40;9.50;;;7.18;;
28910;SDS011;16028;42.642;23.310;2022-09-09T10:57:17;10.30;;;7.50;;
28910;SDS011;16028;42.642;23.310;2022-09-09T11:02:24;16.70;;;8.63;;
28910;SDS011;16028;42.642;23.310;2022-09-09T11:04:54;14.75;;;7.47;;
28910;SDS011;16028;42.642;23.310;2022-09-09T11:07:28;12.10;;;7.50;;
28910;SDS011;16028;42.642;23.310;2022-09-09T11:10:03;11.93;;;8.27;;
28910;SDS011;16028;42.642;23.310;2022-09-09T11:12:40;13.32;;;8.00;;
28910;SDS011;16028;42.642;23.310;2022-09-09T11:15:14;13.15;;;7.50;;
28910;SDS011;16028;42.642;23.310;2022-09-09T11:17:46;11.43;;;7.82;;
28910;SDS011;16028;42.642;23.310;2022-09-09T11:20:16;9.23;;;7.28;;
28910;SDS011;16028;42.642;23.310;2022-09-09T11:22:45;11.55;;;7.50;;
28910;SDS011;16028;42.642;23.310;2022-09-09T11:27:54;15.18;;;8.13;;
28910;SDS011;16028;42.642;23.310;2022-09-09T11:30:37;13.93;;;7.93;;
28910;SDS011;16028;42.642;23.310;2022-09-09T11:33:16;16.10;;;7.95;;
28910;SDS011;16028;42.642;23.310;2022-09-09T11:36:01;11.18;;;8.18;;
28910;SDS011;16028;42.642;23.310;2022-09-09T11:38:40;13.85;;;8.40;;
28910;SDS011;16028;42.642;23.310;2022-09-09T11:41:13;11.43;;;7.90;;
28910;SDS011;16028;42.642;23.310;2022-09-09T11:43:41;13.27;;;8.65;;
28910;SDS011;16028;42.642;23.310;2022-09-09T11:46:10;12.85;;;8.13;;
28910;SDS011;16028;42.642;23.310;2022-09-09T11:48:39;17.08;;;9.13;;
28910;SDS011;16028;42.642;23.310;2022-09-09T11:51:10;17.60;;;9.25;;
28910;SDS011;16028;42.642;23.310;2022-09-09T11:53:49;17.05;;;9.15;;
28910;SDS011;16028;42.642;23.310;2022-09-09T11:56:26;14.48;;;9.02;;
28910;SDS011;16028;42.642;23.310;2022-09-09T11:59:00;16.33;;;9.85;;
28910;SDS011;16028;42.642;23.310;2022-09-09T12:01:38;12.10;;;8.63;;
28910;SDS011;16028;42.642;23.310;2022-09-09T12:04:21;14.00;;;9.20;;
28910;SDS011;16028;42.642;23.310;2022-09-09T12:06:56;22.48;;;9.82;;
28910;SDS011;16028;42.642;23.310;2022-09-09T12:09:30;16.55;;;9.18;;
28910;SDS011;16028;42.642;23.310;2022-09-09T12:12:17;13.88;;;9.18;;
28910;SDS011;16028;42.642;23.310;2022-09-09T12:17:28;13.18;;;9.50;;
28910;SDS011;16028;42.642;23.310;2022-09-09T12:20:00;14.57;;;9.00;;
28910;SDS011;16028;42.642;23.310;2022-09-09T12:22:34;16.17;;;8.85;;
28910;SDS011;16028;42.642;23.310;2022-09-09T12:25:14;12.57;;;9.00;;
28910;SDS011;16028;42.642;23.310;2022-09-09T12:27:54;12.60;;;8.90;;
28910;SDS011;16028;42.642;23.310;2022-09-09T12:30:29;13.52;;;9.40;;
28910;SDS011;16028;42.642;23.310;2022-09-09T12:35:34;19.52;;;10.23;;
28910;SDS011;16028;42.642;23.310;2022-09-09T12:38:03;18.52;;;9.63;;
28910;SDS011;16028;42.642;23.310;2022-09-09T12:40:36;15.02;;;9.25;;
28910;SDS011;16028;42.642;23.310;2022-09-09T12:43:16;13.20;;;8.88;;
28910;SDS011;16028;42.642;23.310;2022-09-09T12:45:44;13.52;;;10.00;;
28910;SDS011;16028;42.642;23.310;2022-09-09T12:48:12;15.55;;;9.73;;
28910;SDS011;16028;42.642;23.310;2022-09-09T12:50:44;14.13;;;9.50;;
28910;SDS011;16028;42.642;23.310;2022-09-09T12:53:12;18.75;;;9.48;;
28910;SDS011;16028;42.642;23.310;2022-09-09T12:55:49;15.05;;;8.95;;
28910;SDS011;16028;42.642;23.310;2022-09-09T12:58:18;11.98;;;9.90;;
28910;SDS011;16028;42.642;23.310;2022-09-09T13:00:50;14.30;;;9.48;;
28910;SDS011;16028;42.642;23.310;2022-09-09T13:03:19;15.38;;;9.98;;
28910;SDS011;16028;42.642;23.310;2022-09-09T13:05:47;14.98;;;10.32;;
28910;SDS011;16028;42.642;23.310;2022-09-09T13:08:15;19.50;;;10.10;;
28910;SDS011;16028;42.642;23.310;2022-09-09T13:10:46;18.00;;;10.48;;
28910;SDS011;16028;42.642;23.310;2022-09-09T13:13:19;16.02;;;8.65;;
28910;SDS011;16028;42.642;23.310;2022-09-09T13:15:49;22.63;;;10.88;;
28910;SDS011;16028;42.642;23.310;2022-09-09T13:18:19;16.65;;;9.45;;
28910;SDS011;16028;42.642;23.310;2022-09-09T13:20:52;16.58;;;9.70;;
28910;SDS011;16028;42.642;23.310;2022-09-09T13:23:22;18.27;;;9.65;;
28910;SDS011;16028;42.642;23.310;2022-09-09T13:25:55;19.80;;;10.32;;
28910;SDS011;16028;42.642;23.310;2022-09-09T13:28:25;17.77;;;9.63;;
28910;SDS011;16028;42.642;23.310;2022-09-09T13:30:56;20.38;;;10.20;;
28910;SDS011;16028;42.642;23.310;2022-09-09T13:33:29;17.73;;;10.60;;
28910;SDS011;16028;42.642;23.310;2022-09-09T13:35:57;16.65;;;10.32;;
28910;SDS011;16028;42.642;23.310;2022-09-09T13:38:55;14.85;;;10.45;;
28910;SDS011;16028;42.642;23.310;2022-09-09T13:41:25;19.20;;;11.23;;
28910;SDS011;16028;42.642;23.310;2022-09-09T13:43:57;15.43;;;9.95;;
28910;SDS011;16028;42.642;23.310;2022-09-09T13:46:25;15.00;;;9.90;;
28910;SDS011;16028;42.642;23.310;2022-09-09T13:48:57;15.48;;;8.82;;
28910;SDS011;16028;42.642;23.310;2022-09-09T13:51:28;17.25;;;9.23;;
28910;SDS011;16028;42.642;23.310;2022-09-09T13:53:59;15.57;;;9.35;;
28910;SDS011;16028;42.642;23.310;2022-09-09T13:56:26;18.85;;;9.60;;
28910;SDS011;16028;42.642;23.310;2022-09-09T13:58:54;17.00;;;10.13;;
28910;SDS011;16028;42.642;23.310;2022-09-09T14:01:22;13.75;;;9.02;;
28910;SDS011;16028;42.642;23.310;2022-09-09T14:03:49;15.75;;;8.82;;
28910;SDS011;16028;42.642;23.310;2022-09-09T14:06:16;11.77;;;8.82;;
28910;SDS011;16028;42.642;23.310;2022-09-09T14:08:44;19.70;;;9.32;;
28910;SDS011;16028;42.642;23.310;2022-09-09T14:11:12;15.57;;;9.90;;
28910;SDS011;16028;42.642;23.310;2022-09-09T14:13:39;13.90;;;9.13;;
28910;SDS011;16028;42.642;23.310;2022-09-09T14:16:06;12.02;;;9.25;;
28910;SDS011;16028;42.642;23.310;2022-09-09T14:18:34;17.10;;;9.38;;
28910;SDS011;16028;42.642;23.310;2022-09-09T14:21:02;18.85;;;9.40;;
28910;SDS011;16028;42.642;23.310;2022-09-09T14:23:29;16.02;;;9.68;;
28910;SDS011;16028;42.642;23.310;2022-09-09T14:25:57;19.92;;;11.93;;
28910;SDS011;16028;42.642;23.310;2022-09-09T14:28:24;20.00;;;14.50;;
28910;SDS011;16028;42.642;23.310;2022-09-09T14:30:54;17.45;;;11.20;;
28910;SDS011;16028;42.642;23.310;2022-09-09T14:33:21;18.42;;;10.10;;
28910;SDS011;16028;42.642;23.310;2022-09-09T14:35:54;13.15;;;9.25;;
28910;SDS011;16028;42.642;23.310;2022-09-09T14:38:22;14.10;;;9.00;;
28910;SDS011;16028;42.642;23.310;2022-09-09T14:40:51;15.48;;;8.93;;
28910;SDS011;16028;42.642;23.310;2022-09-09T14:43:51;23.30;;;9.80;;
28910;SDS011;16028;42.642;23.310;2022-09-09T14:46:21;20.23;;;10.00;;
28910;SDS011;16028;42.642;23.310;2022-09-09T14:49:07;13.45;;;8.50;;
28910;SDS011;16028;42.642;23.310;2022-09-09T14:51:58;14.43;;;8.40;;
28910;SDS011;16028;42.642;23.310;2022-09-09T14:54:39;14.20;;;8.98;;
28910;SDS011;16028;42.642;23.310;2022-09-09T14:57:10;16.60;;;9.10;;
28910;SDS011;16028;42.642;23.310;2022-09-09T14:59:54;13.50;;;8.73;;
28910;SDS011;16028;42.642;23.310;2022-09-09T15:04:55;14.00;;;8.32;;
28910;SDS011;16028;42.642;23.310;2022-09-09T15:07:31;12.13;;;8.77;;
28910;SDS011;16028;42.642;23.310;2022-09-09T15:10:05;12.82;;;9.15;;